createdAt,value
2023-05-05T00:01:13.425Z,55.51
2023-05-05T00:03:45.138Z,58.58
2023-05-05T00:06:16.713Z,56.38
2023-05-05T00:08:48.297Z,57.69
2023-05-05T00:11:19.843Z,57.88
2023-05-05T00:13:51.620Z,54.46
2023-05-05T00:16:23.594Z,54.77
2023-05-05T00:18:55.333Z,55.54
2023-05-05T00:21:27.020Z,55.64
2023-05-05T00:23:58.620Z,55.64
2023-05-05T00:26:30.199Z,55.09
2023-05-05T00:29:01.885Z,55.83
2023-05-05T00:31:33.579Z,56.85
2023-05-05T00:34:05.162Z,56.02
2023-05-05T00:36:36.782Z,55.96
2023-05-05T00:39:08.664Z,53.46
2023-05-05T00:41:40.814Z,53.47
2023-05-05T00:44:12.605Z,55.12
2023-05-05T00:46:44.921Z,54.48
2023-05-05T00:49:16.634Z,55.88
2023-05-05T00:51:48.338Z,55.50
2023-05-05T00:54:19.956Z,54.04
2023-05-05T00:56:52.058Z,54.29
2023-05-05T00:59:24.204Z,53.81
2023-05-05T01:01:56.187Z,54.37
2023-05-05T01:04:27.798Z,55.34
2023-05-05T01:07:14.323Z,54.98
2023-05-05T01:10:18.033Z,53.69
2023-05-05T01:13:12.970Z,54.77
2023-05-05T01:16:04.472Z,54.87
2023-05-05T01:19:03.679Z,54.30
2023-05-05T01:21:46.701Z,55.88
2023-05-05T01:25:03.394Z,55.37
2023-05-05T01:27:53.217Z,56.58
2023-05-05T01:31:02.619Z,54.28
2023-05-05T01:33:47.812Z,56.79
2023-05-05T01:36:26.228Z,56.74
2023-05-05T01:39:02.091Z,54.85
2023-05-05T01:41:41.636Z,56.52
2023-05-05T01:44:16.652Z,55.65
2023-05-05T01:46:51.511Z,55.71
2023-05-05T01:49:24.509Z,55.23
2023-05-05T01:51:57.012Z,55.80
2023-05-05T01:54:29.748Z,55.00
2023-05-05T01:57:03.828Z,56.69
2023-05-05T01:59:38.865Z,57.97
2023-05-05T02:02:12.982Z,56.80
2023-05-05T02:04:47.069Z,57.29
2023-05-05T02:07:21.509Z,57.10
2023-05-05T02:09:56.381Z,55.77
2023-05-05T02:12:31.418Z,57.52
2023-05-05T02:15:04.635Z,57.23
2023-05-05T02:17:36.396Z,57.16
2023-05-05T02:20:11.627Z,57.69
2023-05-05T02:22:43.438Z,57.05
2023-05-05T02:25:16.029Z,55.53
2023-05-05T02:27:53.157Z,55.63
2023-05-05T02:30:28.906Z,56.62
2023-05-05T02:33:09.080Z,55.40
2023-05-05T02:35:42.753Z,54.74
2023-05-05T02:38:23.837Z,56.54
2023-05-05T02:40:59.086Z,56.29
2023-05-05T02:43:33.317Z,54.57
2023-05-05T02:46:05.877Z,55.00
2023-05-05T02:48:38.291Z,54.85
2023-05-05T02:51:10.032Z,56.93
2023-05-05T02:53:43.008Z,55.98
2023-05-05T02:56:34.337Z,55.07
2023-05-05T02:59:18.498Z,55.93
2023-05-05T03:02:14.592Z,58.78
2023-05-05T03:04:56.411Z,55.97
2023-05-05T03:08:00.737Z,57.24
2023-05-05T03:10:46.292Z,58.30
2023-05-05T03:13:21.769Z,56.63
2023-05-05T03:15:56.267Z,56.29
2023-05-05T03:18:31.845Z,57.75
2023-05-05T03:21:07.351Z,56.85
2023-05-05T03:23:39.457Z,56.17
2023-05-05T03:26:17.865Z,58.33
2023-05-05T03:28:50.686Z,60.00
2023-05-05T03:31:28.126Z,59.19
2023-05-05T03:34:03.709Z,59.05
2023-05-05T03:36:40.605Z,57.42
2023-05-05T03:39:16.009Z,59.32
2023-05-05T03:41:47.798Z,58.95
2023-05-05T03:44:20.052Z,57.98
2023-05-05T03:46:51.650Z,58.85
2023-05-05T03:49:24.164Z,59.53
2023-05-05T03:51:56.943Z,59.24
2023-05-05T03:54:28.547Z,57.21
2023-05-05T03:57:00.920Z,58.57
2023-05-05T03:59:32.562Z,57.63
2023-05-05T04:02:04.425Z,60.49
2023-05-05T04:04:36.066Z,58.57
2023-05-05T04:07:07.993Z,57.00
2023-05-05T04:09:39.655Z,57.31
2023-05-05T04:12:12.407Z,58.13
2023-05-05T04:14:44.914Z,56.83
2023-05-05T04:17:16.637Z,57.96
2023-05-05T04:19:48.872Z,58.06
2023-05-05T04:22:20.782Z,60.69
2023-05-05T04:24:52.790Z,60.08
2023-05-05T04:27:24.543Z,58.28
2023-05-05T04:29:57.027Z,60.41
2023-05-05T04:32:29.336Z,58.63
2023-05-05T04:35:01.290Z,60.47
2023-05-05T04:37:32.972Z,61.36
2023-05-05T04:40:05.611Z,60.68
2023-05-05T04:42:39.625Z,58.09
2023-05-05T04:45:11.879Z,58.84
2023-05-05T04:47:44.272Z,57.27
2023-05-05T04:50:16.325Z,59.99
2023-05-05T04:52:48.015Z,59.75
2023-05-05T04:55:20.360Z,59.69
2023-05-05T04:57:51.996Z,59.54
2023-05-05T05:00:24.477Z,60.42
2023-05-05T05:02:56.184Z,59.13
2023-05-05T05:05:27.796Z,57.05
2023-05-05T05:07:59.428Z,56.39
2023-05-05T05:10:31.097Z,57.57
2023-05-05T05:13:02.794Z,57.02
2023-05-05T05:15:34.516Z,57.00
2023-05-05T05:18:06.338Z,57.18
2023-05-05T05:20:38.266Z,57.00
2023-05-05T05:23:14.004Z,58.30
2023-05-05T05:25:48.981Z,56.86
2023-05-05T05:28:23.222Z,55.83
2023-05-05T05:30:59.583Z,55.20
2023-05-05T05:33:34.921Z,55.88
2023-05-05T05:36:06.700Z,55.78
2023-05-05T05:38:38.400Z,55.41
2023-05-05T05:41:10.967Z,54.96
2023-05-05T05:43:44.166Z,55.50
2023-05-05T05:46:15.891Z,55.00
2023-05-05T05:48:48.026Z,53.34
2023-05-05T05:51:19.879Z,50.17
2023-05-05T05:53:52.548Z,45.92
2023-05-05T05:56:24.250Z,49.35
2023-05-05T05:58:56.409Z,46.44
2023-05-05T06:01:28.609Z,48.18
2023-05-05T06:04:00.450Z,48.48
2023-05-05T06:06:32.645Z,48.97
2023-05-05T06:09:05.527Z,48.07
2023-05-05T06:11:38.527Z,46.82
2023-05-05T06:14:10.723Z,44.87
2023-05-05T06:16:42.468Z,42.95
2023-05-05T06:19:17.682Z,39.31
2023-05-05T06:21:49.340Z,36.66
2023-05-05T06:24:21.192Z,36.20
2023-05-05T06:26:52.990Z,34.44
2023-05-05T06:29:25.182Z,33.01
2023-05-05T06:31:57.124Z,36.06
2023-05-05T06:34:28.784Z,40.80
2023-05-05T06:37:00.419Z,42.11
2023-05-05T06:39:32.061Z,41.96
2023-05-05T06:42:03.747Z,42.83
2023-05-05T06:44:35.333Z,36.82
2023-05-05T06:47:07.020Z,36.81
2023-05-05T06:49:38.676Z,36.65
2023-05-05T06:52:10.385Z,36.69
2023-05-05T06:54:43.570Z,33.99
2023-05-05T06:57:15.231Z,36.26
2023-05-05T06:59:47.014Z,34.20
2023-05-05T07:02:18.555Z,35.15
2023-05-05T07:04:50.409Z,37.39
2023-05-05T07:07:22.298Z,39.39
2023-05-05T07:09:54.036Z,38.92
2023-05-05T07:12:25.906Z,41.42
2023-05-05T07:14:57.467Z,43.42
2023-05-05T07:17:29.105Z,41.96
2023-05-05T07:20:00.736Z,40.23
2023-05-05T07:22:32.335Z,40.25
2023-05-05T07:25:05.033Z,41.56
2023-05-05T07:27:37.171Z,42.61
2023-05-05T07:30:13.113Z,41.97
2023-05-05T07:32:45.967Z,42.00
2023-05-05T07:35:17.903Z,40.35
2023-05-05T07:37:49.778Z,40.81
2023-05-05T07:40:21.507Z,43.02
2023-05-05T07:42:53.185Z,41.65
2023-05-05T07:45:24.831Z,40.70
2023-05-05T07:47:56.538Z,38.42
2023-05-05T07:50:28.239Z,37.34
2023-05-05T07:53:10.960Z,38.35
2023-05-05T07:55:46.385Z,39.98
2023-05-05T07:58:18.408Z,39.83
2023-05-05T08:00:50.088Z,38.88
2023-05-05T08:03:21.815Z,41.62
2023-05-05T08:05:54.989Z,40.93
2023-05-05T08:08:26.568Z,39.83
2023-05-05T08:10:58.135Z,41.25
2023-05-05T08:13:29.904Z,39.58
2023-05-05T08:16:01.736Z,39.50
2023-05-05T08:18:33.359Z,39.80
2023-05-05T08:21:06.457Z,39.28
2023-05-05T08:23:39.014Z,37.39
2023-05-05T08:26:10.645Z,39.30
2023-05-05T08:28:42.206Z,37.62
2023-05-05T08:31:13.861Z,37.12
2023-05-05T08:33:45.492Z,36.50
2023-05-05T08:36:17.114Z,36.96
2023-05-05T08:38:48.717Z,36.71
2023-05-05T08:41:20.305Z,36.28
2023-05-05T08:43:52.173Z,36.02
2023-05-05T08:46:26.065Z,38.11
2023-05-05T08:49:00.699Z,38.24
2023-05-05T08:51:41.885Z,37.60
2023-05-05T08:54:23.268Z,39.09
2023-05-05T08:57:01.881Z,38.79
2023-05-05T08:59:35.438Z,38.75
2023-05-05T09:02:10.386Z,38.56
2023-05-05T09:04:42.599Z,36.97
2023-05-05T09:07:14.635Z,39.13
2023-05-05T09:09:46.522Z,38.98
2023-05-05T09:12:18.980Z,37.45
2023-05-05T09:14:50.660Z,37.07
2023-05-05T09:17:24.384Z,37.00
2023-05-05T09:20:07.967Z,36.98
2023-05-05T09:22:39.549Z,37.76
2023-05-05T09:25:16.433Z,37.03
2023-05-05T09:27:49.556Z,38.05
2023-05-05T09:30:25.816Z,35.98
2023-05-05T09:32:57.452Z,37.43
2023-05-05T09:35:29.435Z,37.51
2023-05-05T09:38:11.412Z,36.31
2023-05-05T09:40:47.924Z,36.05
2023-05-05T09:43:23.083Z,34.86
2023-05-05T09:46:06.945Z,35.09
2023-05-05T09:48:38.566Z,34.06
2023-05-05T09:51:10.239Z,34.29
2023-05-05T09:53:41.984Z,34.46
2023-05-05T09:56:13.633Z,34.95
2023-05-05T09:58:45.387Z,35.41
2023-05-05T10:01:23.600Z,34.41
2023-05-05T10:03:55.193Z,35.91
2023-05-05T10:06:42.791Z,34.28
2023-05-05T10:09:14.717Z,35.65
2023-05-05T10:11:47.553Z,34.71
2023-05-05T10:14:20.260Z,36.28
2023-05-05T10:16:54.647Z,34.31
2023-05-05T10:19:30.906Z,34.35
2023-05-05T10:22:08.518Z,34.37
2023-05-05T10:24:46.949Z,35.63
2023-05-05T10:27:24.138Z,36.31
2023-05-05T10:30:03.327Z,35.56
2023-05-05T10:32:57.474Z,34.32
2023-05-05T10:35:41.200Z,37.34
2023-05-05T10:38:14.069Z,37.37
2023-05-05T10:40:47.990Z,36.45
2023-05-05T10:43:20.704Z,37.53
2023-05-05T10:45:54.365Z,36.99
2023-05-05T10:48:38.167Z,37.59
2023-05-05T10:51:31.450Z,37.08
2023-05-05T10:54:16.977Z,37.82
2023-05-05T10:56:49.588Z,37.01
2023-05-05T10:59:36.499Z,36.70
2023-05-05T11:02:24.136Z,37.24
2023-05-05T11:05:17.276Z,37.00
2023-05-05T11:07:51.207Z,37.06
2023-05-05T11:10:22.832Z,35.43
2023-05-05T11:12:54.497Z,35.95
2023-05-05T11:15:26.168Z,37.40
2023-05-05T11:18:00.743Z,38.66
2023-05-05T11:20:35.815Z,37.95
2023-05-05T11:23:07.401Z,37.80
2023-05-05T11:25:38.949Z,36.34
2023-05-05T11:28:12.052Z,38.48
2023-05-05T11:30:56.396Z,38.86
2023-05-05T11:33:33.642Z,38.76
2023-05-05T11:36:08.053Z,37.30
2023-05-05T11:38:56.300Z,36.31
2023-05-05T11:41:30.790Z,36.71
2023-05-05T11:44:13.887Z,36.77
2023-05-05T11:46:51.408Z,35.82
2023-05-05T11:49:36.967Z,36.84
2023-05-05T11:52:13.957Z,36.95
2023-05-05T11:54:47.377Z,36.58
2023-05-05T11:57:27.096Z,36.24
2023-05-05T12:00:07.657Z,37.33
2023-05-05T12:02:39.567Z,37.01
2023-05-05T12:05:11.434Z,37.35
2023-05-05T12:07:43.249Z,35.91
2023-05-05T12:10:22.569Z,35.50
2023-05-05T12:12:55.516Z,35.81
2023-05-05T12:15:32.262Z,35.82
2023-05-05T12:18:04.044Z,35.91
2023-05-05T12:20:35.725Z,33.74
2023-05-05T12:23:07.443Z,33.67
2023-05-05T12:25:39.623Z,34.28
2023-05-05T12:28:11.229Z,35.66
2023-05-05T12:30:42.906Z,34.27
2023-05-05T12:33:14.648Z,33.90
2023-05-05T12:35:46.699Z,34.03
2023-05-05T12:38:18.425Z,34.16
2023-05-05T12:40:50.385Z,35.27
2023-05-05T12:43:33.318Z,34.74
2023-05-05T12:46:10.394Z,34.75
2023-05-05T12:48:42.421Z,34.47
2023-05-05T12:51:21.029Z,34.60
2023-05-05T12:54:09.058Z,34.29
2023-05-05T12:56:42.647Z,35.69
2023-05-05T12:59:23.379Z,37.88
2023-05-05T13:01:58.953Z,37.83
2023-05-05T13:04:30.692Z,38.43
2023-05-05T13:07:13.904Z,38.31
2023-05-05T13:09:46.816Z,39.88
2023-05-05T13:12:18.810Z,40.76
2023-05-05T13:14:50.365Z,44.54
2023-05-05T13:17:22.003Z,43.88
2023-05-05T13:19:53.667Z,44.39
2023-05-05T13:22:25.255Z,41.44
2023-05-05T13:24:56.784Z,39.42
2023-05-05T13:27:28.444Z,41.24
2023-05-05T13:30:00.225Z,43.09
2023-05-05T13:32:31.975Z,43.86
2023-05-05T13:35:03.841Z,42.09
2023-05-05T13:37:35.422Z,41.69
2023-05-05T13:40:07.881Z,41.09
2023-05-05T13:42:39.530Z,42.31
2023-05-05T13:45:11.286Z,42.32
2023-05-05T13:47:42.874Z,40.41
2023-05-05T13:50:14.431Z,39.46
2023-05-05T13:52:46.015Z,40.18
2023-05-05T13:55:17.848Z,38.21
2023-05-05T13:57:49.553Z,37.22
2023-05-05T14:00:21.305Z,35.02
2023-05-05T14:02:53.253Z,36.08
2023-05-05T14:05:24.995Z,36.83
2023-05-05T14:07:56.931Z,36.89
2023-05-05T14:10:28.725Z,38.91
2023-05-05T14:13:00.465Z,39.20
2023-05-05T14:15:33.167Z,37.58
2023-05-05T14:18:05.332Z,39.15
2023-05-05T14:20:37.092Z,37.91
2023-05-05T14:23:08.701Z,37.13
2023-05-05T14:25:40.295Z,35.23
2023-05-05T14:28:11.933Z,36.02
2023-05-05T14:30:44.762Z,35.41
2023-05-05T14:33:16.326Z,34.69
2023-05-05T14:35:47.933Z,35.16
2023-05-05T14:38:19.645Z,35.03
2023-05-05T14:40:51.269Z,33.62
2023-05-05T14:43:22.789Z,33.77
2023-05-05T14:45:54.466Z,34.46
2023-05-05T14:48:26.138Z,34.22
2023-05-05T14:50:57.705Z,34.06
2023-05-05T14:53:29.357Z,33.58
2023-05-05T14:56:01.138Z,33.33
2023-05-05T14:58:32.864Z,32.58
2023-05-05T15:01:04.549Z,32.64
2023-05-05T15:03:36.156Z,33.48
2023-05-05T15:06:08.894Z,32.90
2023-05-05T15:08:40.503Z,33.24
2023-05-05T15:11:12.170Z,33.64
2023-05-05T15:13:43.721Z,34.02
2023-05-05T15:16:15.409Z,34.16
2023-05-05T15:18:47.109Z,34.38
2023-05-05T15:21:18.756Z,34.68
2023-05-05T15:23:50.425Z,34.57
2023-05-05T15:26:22.058Z,34.92
2023-05-05T15:28:53.893Z,34.51
2023-05-05T15:31:25.522Z,34.47
2023-05-05T15:33:57.159Z,35.12
2023-05-05T15:36:28.821Z,36.18
2023-05-05T15:39:00.374Z,36.64
2023-05-05T15:41:34.545Z,35.93
2023-05-05T15:44:06.114Z,35.95
2023-05-05T15:46:37.819Z,35.81
2023-05-05T15:49:09.509Z,37.71
2023-05-05T15:51:41.212Z,37.16
2023-05-05T15:54:12.878Z,36.04
2023-05-05T15:56:44.503Z,34.81
2023-05-05T15:59:16.165Z,35.28
2023-05-05T16:01:47.827Z,35.27
2023-05-05T16:04:20.330Z,35.60
2023-05-05T16:06:52.176Z,37.23
2023-05-05T16:09:24.146Z,36.28
2023-05-05T16:11:55.854Z,36.09
2023-05-05T16:14:27.535Z,38.66
2023-05-05T16:16:59.341Z,40.91
2023-05-05T16:19:31.015Z,40.32
2023-05-05T16:22:02.705Z,42.18
2023-05-05T16:24:34.440Z,41.40
2023-05-05T16:27:06.090Z,41.94
2023-05-05T16:29:37.777Z,43.34
2023-05-05T16:32:09.607Z,42.62
2023-05-05T16:34:41.308Z,42.15
2023-05-05T16:37:13.012Z,42.50
2023-05-05T16:39:44.966Z,42.92
2023-05-05T16:42:16.799Z,42.48
2023-05-05T16:44:48.309Z,41.24
2023-05-05T16:47:19.869Z,40.23
2023-05-05T16:49:51.467Z,40.86
2023-05-05T16:52:23.075Z,39.92
2023-05-05T16:54:54.736Z,39.33
2023-05-05T16:57:26.424Z,39.34
2023-05-05T16:59:58.014Z,38.58
2023-05-05T17:02:29.604Z,39.17
2023-05-05T17:05:02.150Z,40.03
2023-05-05T17:07:33.759Z,40.38
2023-05-05T17:10:06.143Z,39.82
2023-05-05T17:12:37.783Z,39.23
2023-05-05T17:15:09.783Z,38.86
2023-05-05T17:17:43.043Z,40.67
2023-05-05T17:20:14.903Z,40.27
2023-05-05T17:22:46.535Z,40.77
2023-05-05T17:25:18.328Z,41.13
2023-05-05T17:27:50.105Z,40.64
2023-05-05T17:30:22.438Z,41.00
2023-05-05T17:32:54.081Z,40.73
2023-05-05T17:35:25.852Z,41.04
2023-05-05T17:37:57.435Z,40.88
2023-05-05T17:40:29.018Z,40.45
2023-05-05T17:43:00.590Z,40.39
2023-05-05T17:45:32.206Z,40.19
2023-05-05T17:48:04.084Z,39.76
2023-05-05T17:50:35.670Z,38.73
2023-05-05T17:53:07.213Z,38.82
2023-05-05T17:55:38.796Z,38.14
2023-05-05T17:58:10.401Z,38.66
2023-05-05T18:00:42.010Z,37.71
2023-05-05T18:03:13.743Z,38.97
2023-05-05T18:05:45.442Z,39.33
2023-05-05T18:08:17.210Z,38.58
2023-05-05T18:10:48.972Z,38.77
2023-05-05T18:13:20.657Z,38.26
2023-05-05T18:15:52.423Z,39.29
2023-05-05T18:18:24.265Z,40.34
2023-05-05T18:20:55.852Z,41.73
2023-05-05T18:23:27.573Z,42.43
2023-05-05T18:25:59.205Z,42.15
2023-05-05T18:28:30.885Z,42.15
2023-05-05T18:31:02.657Z,42.44
2023-05-05T18:33:34.303Z,41.64
2023-05-05T18:36:06.131Z,42.22
2023-05-05T18:38:37.888Z,41.47
2023-05-05T18:41:09.636Z,41.96
2023-05-05T18:43:41.854Z,41.49
2023-05-05T18:46:13.651Z,40.72
2023-05-05T18:48:45.468Z,42.53
2023-05-05T18:51:17.168Z,43.53
2023-05-05T18:53:49.606Z,43.16
2023-05-05T18:56:21.408Z,43.72
2023-05-05T18:58:53.141Z,44.67
2023-05-05T19:01:24.864Z,47.97
2023-05-05T19:03:56.712Z,49.76
2023-05-05T19:06:28.582Z,51.19
2023-05-05T19:09:00.360Z,49.70
2023-05-05T19:11:31.995Z,48.62
2023-05-05T19:14:03.565Z,47.93
2023-05-05T19:16:35.359Z,46.98
2023-05-05T19:19:07.178Z,47.36
2023-05-05T19:21:38.954Z,48.07
2023-05-05T19:24:10.673Z,45.77
2023-05-05T19:26:42.781Z,45.25
2023-05-05T19:29:14.368Z,46.49
2023-05-05T19:31:46.082Z,47.80
2023-05-05T19:34:17.741Z,48.10
2023-05-05T19:36:51.650Z,46.42
2023-05-05T19:39:23.363Z,47.29
2023-05-05T19:41:54.994Z,46.49
2023-05-05T19:44:26.692Z,45.99
2023-05-05T19:46:58.267Z,46.14
2023-05-05T19:49:30.004Z,47.36
2023-05-05T19:52:02.706Z,47.87
2023-05-05T19:54:34.546Z,46.34
2023-05-05T19:57:06.240Z,49.16
2023-05-05T19:59:37.784Z,47.88
2023-05-05T20:02:09.975Z,48.32
2023-05-05T20:04:41.590Z,51.13
2023-05-05T20:07:13.396Z,50.21
2023-05-05T20:09:45.165Z,49.85
2023-05-05T20:12:16.876Z,52.35
2023-05-05T20:14:51.665Z,51.03
2023-05-05T20:17:23.445Z,50.43
2023-05-05T20:19:55.062Z,52.60
2023-05-05T20:22:26.674Z,52.25
2023-05-05T20:24:58.341Z,51.99
2023-05-05T20:27:29.974Z,50.50
2023-05-05T20:30:01.609Z,50.87
2023-05-05T20:32:33.280Z,51.73
2023-05-05T20:35:05.359Z,51.48
2023-05-05T20:37:37.063Z,50.64
2023-05-05T20:40:09.537Z,53.27
2023-05-05T20:42:41.290Z,53.93
2023-05-05T20:45:12.919Z,53.54
2023-05-05T20:47:44.596Z,55.10
2023-05-05T20:50:18.939Z,56.32
2023-05-05T20:52:50.615Z,55.08
2023-05-05T20:55:22.575Z,53.80
2023-05-05T20:57:54.121Z,52.93
2023-05-05T21:00:26.072Z,54.68
2023-05-05T21:02:57.796Z,54.51
2023-05-05T21:05:30.040Z,53.19
2023-05-05T21:08:01.948Z,55.11
2023-05-05T21:10:33.797Z,53.70
2023-05-05T21:13:05.794Z,52.81
2023-05-05T21:15:38.101Z,53.35
2023-05-05T21:18:09.973Z,53.62
2023-05-05T21:20:41.753Z,53.97
2023-05-05T21:23:13.408Z,52.93
2023-05-05T21:25:45.083Z,54.08
2023-05-05T21:28:16.781Z,52.12
2023-05-05T21:31:04.520Z,52.14
2023-05-05T21:33:40.814Z,52.43
2023-05-05T21:36:12.948Z,54.33
2023-05-05T21:38:44.609Z,56.01
2023-05-05T21:41:16.247Z,56.63
2023-05-05T21:43:48.126Z,57.80
2023-05-05T21:46:19.856Z,58.26
2023-05-05T21:48:51.477Z,57.91
2023-05-05T21:51:23.069Z,59.61
2023-05-05T21:53:54.635Z,60.78
2023-05-05T21:56:26.163Z,62.64
2023-05-05T21:58:57.747Z,60.73
2023-05-05T22:01:29.569Z,60.40
2023-05-05T22:04:01.373Z,59.52
2023-05-05T22:06:33.083Z,59.69
2023-05-05T22:09:04.630Z,59.55
2023-05-05T22:11:36.202Z,59.69
2023-05-05T22:14:07.837Z,59.16
2023-05-05T22:16:39.508Z,61.69
2023-05-05T22:19:11.178Z,61.66
2023-05-05T22:21:42.836Z,60.22
2023-05-05T22:24:14.501Z,58.59
2023-05-05T22:26:46.085Z,59.81
2023-05-05T22:29:17.652Z,58.00
2023-05-05T22:31:49.318Z,57.25
2023-05-05T22:34:20.976Z,57.86
2023-05-05T22:36:52.687Z,60.76
2023-05-05T22:39:24.278Z,61.95
2023-05-05T22:41:55.934Z,59.56
2023-05-05T22:44:27.581Z,58.06
2023-05-05T22:46:59.184Z,59.82
2023-05-05T22:49:30.861Z,57.18
2023-05-05T22:52:02.579Z,58.30
2023-05-05T22:54:34.186Z,57.29
2023-05-05T22:57:05.899Z,58.07
2023-05-05T22:59:37.606Z,59.10
2023-05-05T23:02:09.173Z,63.23
2023-05-05T23:04:41.020Z,64.73
2023-05-05T23:07:13.482Z,63.96
2023-05-05T23:09:46.765Z,66.29
2023-05-05T23:12:18.402Z,67.91
2023-05-05T23:14:50.130Z,70.38
2023-05-05T23:17:21.748Z,68.52
2023-05-05T23:19:53.501Z,66.68
2023-05-05T23:22:25.158Z,66.34
2023-05-05T23:24:56.826Z,66.02
2023-05-05T23:27:28.573Z,64.98
2023-05-05T23:30:00.552Z,66.81
2023-05-05T23:32:32.428Z,66.25
2023-05-05T23:35:04.474Z,65.97
2023-05-05T23:37:36.348Z,66.88
2023-05-05T23:40:08.727Z,68.14
2023-05-05T23:42:40.437Z,69.22
2023-05-05T23:45:12.510Z,69.33
2023-05-05T23:47:44.400Z,70.41
2023-05-05T23:50:16.097Z,68.73
2023-05-05T23:52:47.709Z,67.05
2023-05-05T23:55:19.373Z,69.00
2023-05-05T23:57:50.986Z,66.26
